Time;durP1;ratioP1;P1;durP2;ratioP2;P2;SDS_P1;SDS_P2;PMS_P1;PMS_P2;Temp;Humidity;BMP_temperature;BMP_pressure;BME280_temperature;BME280_humidity;BME280_pressure;Samples;Min_cycle;Max_cycle;Signal;HPM_P1;HPM_P2
2023/03/07 00:01:06;;;;;;;9.02;4.22;;;;;;;3.31;88.99;98919.09;6225465;28;20056;-70
2023/03/07 00:04:06;;;;;;;8.25;3.63;;;;;;;3.36;87.87;98923.13;6224571;28;20045;-70
2023/03/07 00:07:07;;;;;;;8.15;4.05;;;;;;;3.40;87.17;98914.34;6224522;28;20066;-71
2023/03/07 00:10:09;;;;;;;6.43;4.07;;;;;;;3.41;87.28;98921.16;6242219;28;20052;-73
2023/03/07 00:13:10;;;;;;;4.88;3.50;;;;;;;3.46;86.66;98923.53;6243422;28;20044;-73
2023/03/07 00:16:17;;;;;;;7.80;4.50;;;;;;;3.40;86.29;98916.09;6224642;28;20045;-73
2023/03/07 00:19:18;;;;;;;9.07;3.60;;;;;;;3.35;86.63;98918.88;6242803;28;20413;-74
2023/03/07 00:22:19;;;;;;;6.47;3.92;;;;;;;3.28;86.97;98914.13;6242272;28;20045;-70
2023/03/07 00:25:19;;;;;;;8.77;4.40;;;;;;;3.25;87.07;98912.50;6242508;28;20414;-70
2023/03/07 00:28:22;;;;;;;8.35;4.32;;;;;;;3.32;86.56;98923.38;6226129;28;20045;-74
2023/03/07 00:31:23;;;;;;;4.20;3.20;;;;;;;3.33;86.53;98910.38;6246686;28;20409;-70
2023/03/07 00:34:26;;;;;;;8.27;4.57;;;;;;;3.33;87.20;98920.69;6228306;28;20046;-70
2023/03/07 00:37:29;;;;;;;6.18;3.90;;;;;;;3.33;86.87;98920.69;6229060;28;20038;-73
2023/03/07 00:40:30;;;;;;;10.98;4.13;;;;;;;3.33;87.08;98917.28;6229529;28;20061;-73
2023/03/07 00:43:31;;;;;;;6.50;3.00;;;;;;;3.36;86.04;98909.41;6228113;28;20405;-70
2023/03/07 00:46:32;;;;;;;5.45;3.08;;;;;;;3.38;85.95;98910.16;6229207;28;20069;-73
2023/03/07 00:49:35;;;;;;;8.25;3.72;;;;;;;3.38;86.03;98908.41;6229436;28;20052;-74
2023/03/07 00:52:36;;;;;;;11.27;3.92;;;;;;;3.35;86.41;98900.00;6228487;28;20095;-70
2023/03/07 00:55:36;;;;;;;8.15;4.68;;;;;;;3.36;87.17;98910.25;6229045;28;20045;-73
2023/03/07 00:58:37;;;;;;;7.85;4.03;;;;;;;3.36;87.77;98904.25;6228749;28;20041;-70
2023/03/07 01:01:40;;;;;;;5.32;3.28;;;;;;;3.35;88.45;98900.81;6245664;28;20049;-73
2023/03/07 01:04:44;;;;;;;6.72;3.53;;;;;;;3.28;88.87;98899.47;6246719;28;20085;-74
2023/03/07 01:07:45;;;;;;;6.35;3.78;;;;;;;3.26;88.08;98898.72;6227819;28;20132;-73
2023/03/07 01:10:47;;;;;;;8.63;4.32;;;;;;;3.26;87.50;98898.72;6229033;28;20046;-74
2023/03/07 01:13:48;;;;;;;;;;;;;;;3.27;86.85;98892.63;6245876;28;20401;-70
2023/03/07 01:16:49;;;;;;;6.32;4.07;;;;;;;3.28;86.85;98891.75;6227482;28;19921;-70
2023/03/07 01:19:49;;;;;;;8.18;3.88;;;;;;;3.28;86.64;98885.75;6227514;28;20041;-71
2023/03/07 01:22:50;;;;;;;14.90;4.88;;;;;;;3.24;86.55;98885.06;6228146;28;20116;-70
2023/03/07 01:25:51;;;;;;;7.00;4.10;;;;;;;3.21;86.98;98878.31;6245616;28;20404;-74
2023/03/07 01:28:56;;;;;;;7.97;4.80;;;;;;;3.17;87.63;98873.38;6246366;28;20464;-73
2023/03/07 01:31:57;;;;;;;5.90;3.35;;;;;;;3.17;87.29;98866.50;6245358;28;20053;-70
2023/03/07 01:34:58;;;;;;;9.52;4.75;;;;;;;3.17;87.60;98865.63;6227376;28;20050;-70
2023/03/07 01:37:58;;;;;;;10.65;5.55;;;;;;;3.14;87.74;98858.91;6227608;28;20041;-73
2023/03/07 01:41:01;;;;;;;8.73;4.47;;;;;;;3.17;88.34;98861.34;6195103;28;20047;-70
2023/03/07 01:44:04;;;;;;;;;;;;;;;3.18;89.26;98857.84;6197055;28;20042;-73
2023/03/07 01:47:04;;;;;;;7.93;3.88;;;;;;;3.17;88.98;98860.50;6196103;28;20016;-70
2023/03/07 01:50:10;;;;;;;8.20;5.20;;;;;;;3.17;89.26;98861.34;6195555;28;20524;-70
2023/03/07 01:53:11;;;;;;;7.35;4.72;;;;;;;3.19;90.48;98863.81;6194574;28;20470;-70
2023/03/07 01:56:12;;;;;;;14.52;5.53;;;;;;;3.20;90.73;98853.44;6194228;28;20051;-70
2023/03/07 01:59:20;;;;;;;7.03;4.68;;;;;;;3.22;90.53;98851.63;6194409;28;20046;-70
2023/03/07 02:02:22;;;;;;;7.43;4.68;;;;;;;3.20;90.50;98850.88;6194301;28;20070;-71
2023/03/07 02:05:29;;;;;;;18.15;5.20;;;;;;;3.18;90.46;98849.28;6195464;28;20076;-70
2023/03/07 02:08:33;;;;;;;9.80;5.25;;;;;;;3.16;90.86;98839.03;6194257;28;20132;-73
2023/03/07 02:11:34;;;;;;;14.27;6.20;;;;;;;3.17;90.55;98839.88;6196207;28;20053;-70
2023/03/07 02:14:35;;;;;;;15.73;5.53;;;;;;;3.11;91.19;98835.88;6195904;28;20125;-73
2023/03/07 02:17:36;;;;;;;6.70;4.65;;;;;;;3.14;91.32;98840.84;6194560;28;20417;-70
2023/03/07 02:20:55;;;;;;;13.70;6.17;;;;;;;3.11;90.74;98830.72;6195161;28;20053;-73
2023/03/07 02:24:29;;;;;;;11.35;5.07;;;;;;;3.09;90.66;98837.69;6193875;28;20042;-70
2023/03/07 02:27:31;;;;;;;;;;;;;;;3.05;90.99;98841.34;6196192;28;20043;-73
2023/03/07 02:30:32;;;;;;;6.75;3.25;;;;;;;2.98;90.74;98835.63;6195276;28;19965;-74
2023/03/07 02:33:33;;;;;;;7.78;5.10;;;;;;;2.97;90.67;98840.88;6195875;28;20059;-73
2023/03/07 02:36:35;;;;;;;12.07;5.75;;;;;;;2.95;91.07;98842.69;6194772;28;20046;-70
2023/03/07 02:39:40;;;;;;;10.77;5.43;;;;;;;2.95;91.59;98843.53;6220154;28;20050;-70
2023/03/07 02:42:42;;;;;;;12.85;6.43;;;;;;;2.93;91.72;98837.59;6227234;28;20281;-73
2023/03/07 02:45:43;;;;;;;13.68;7.03;;;;;;;2.89;91.97;98843.00;6245058;28;20476;-74
2023/03/07 02:48:43;;;;;;;9.27;4.82;;;;;;;2.86;91.96;98854.25;6227452;28;20070;-74
2023/03/07 02:51:44;;;;;;;10.70;5.63;;;;;;;2.85;91.91;98859.50;6226162;28;20532;-70
2023/03/07 02:54:45;;;;;;;12.25;5.97;;;;;;;2.78;92.59;98854.66;6226441;28;20050;-70
2023/03/07 02:57:45;;;;;;;13.63;5.88;;;;;;;2.78;93.10;98856.38;6243645;28;20037;-73
2023/03/07 03:00:46;;;;;;;9.88;5.25;;;;;;;2.81;93.21;98851.91;6225825;28;20046;-70
2023/03/07 03:03:47;;;;;;;6.88;4.22;;;;;;;2.85;92.59;98844.06;6243066;28;20390;-70
2023/03/07 03:06:50;;;;;;;11.57;4.80;;;;;;;2.87;93.17;98849.97;6244413;28;20471;-74
2023/03/07 03:09:51;;;;;;;5.63;3.83;;;;;;;2.79;93.80;98840.03;6225547;28;20045;-70
2023/03/07 03:12:52;;;;;;;10.57;4.43;;;;;;;2.90;93.66;98847.22;6243355;28;20061;-73
2023/03/07 03:15:56;;;;;;;10.07;4.82;;;;;;;2.89;94.31;98851.56;6225633;28;20041;-70
2023/03/07 03:19:00;;;;;;;8.02;3.92;;;;;;;2.85;94.52;98855.19;6243614;28;20038;-73
2023/03/07 03:22:03;;;;;;;9.35;4.90;;;;;;;2.84;94.91;98850.91;6244425;28;20090;-74
2023/03/07 03:25:08;;;;;;;4.47;3.25;;;;;;;2.85;95.29;98855.19;6226885;28;20545;-73
2023/03/07 03:28:09;;;;;;;7.95;4.07;;;;;;;2.85;95.53;98851.78;6224993;28;20050;-70
2023/03/07 03:31:13;;;;;;;7.65;3.78;;;;;;;2.81;95.63;98859.63;6225144;28;20064;-71
2023/03/07 03:34:14;;;;;;;6.80;3.40;;;;;;;2.84;96.17;98858.66;6243373;28;20041;-74
2023/03/07 03:37:15;;;;;;;7.43;3.38;;;;;;;2.79;96.26;98851.16;6225457;28;20067;-70
2023/03/07 03:40:16;;;;;;;7.07;3.80;;;;;;;2.83;95.89;98860.41;6242253;28;20405;-71
2023/03/07 03:43:18;;;;;;;7.95;4.25;;;;;;;2.85;96.06;98856.94;6226753;28;20046;-73
2023/03/07 03:46:19;;;;;;;7.10;3.40;;;;;;;2.92;95.37;98855.72;6226669;28;20068;-74
2023/03/07 03:49:20;;;;;;;18.95;7.53;;;;;;;2.90;95.67;98865.25;6243533;28;20042;-70
2023/03/07 03:52:23;;;;;;;16.42;10.25;;;;;;;2.90;96.19;98860.09;6224904;28;20169;-73
2023/03/07 03:55:23;;;;;;;5.97;5.13;;;;;;;2.85;96.21;98857.75;6242829;28;20132;-70
2023/03/07 03:58:24;;;;;;;9.13;4.25;;;;;;;2.86;96.01;98864.56;6243468;28;20503;-73
2023/03/07 04:01:26;;;;;;;5.35;3.05;;;;;;;2.79;96.78;98866.59;6244095;28;20401;-74
2023/03/07 04:04:27;;;;;;;5.60;3.38;;;;;;;2.81;96.78;98864.78;6246642;28;20124;-70
2023/03/07 04:07:28;;;;;;;6.88;2.95;;;;;;;2.75;97.26;98864.25;6230162;28;20037;-74
2023/03/07 04:10:29;;;;;;;9.93;3.83;;;;;;;2.77;97.18;98855.53;6248062;28;20053;-73
2023/03/07 04:13:34;;;;;;;7.43;3.67;;;;;;;2.70;97.51;98849.03;6248336;28;20049;-73
2023/03/07 04:16:35;;;;;;;7.53;2.97;;;;;;;2.70;98.00;98853.31;6230586;28;20041;-70
2023/03/07 04:19:35;;;;;;;6.75;3.45;;;;;;;2.68;98.49;98860.28;6246026;28;20412;-70
2023/03/07 04:22:36;;;;;;;5.07;3.20;;;;;;;2.65;98.19;98855.31;6228427;28;20042;-70
2023/03/07 04:25:37;;;;;;;5.53;3.42;;;;;;;2.56;99.32;98848.84;6228814;28;20047;-73
2023/03/07 04:28:48;;;;;;;4.07;3.30;;;;;;;2.52;99.54;98842.19;6246723;28;20033;-70
2023/03/07 04:31:48;;;;;;;7.22;4.13;;;;;;;2.50;100.00;98852.53;6246481;28;20166;-74
2023/03/07 04:34:51;;;;;;;7.80;3.05;;;;;;;2.56;100.00;98854.84;6229160;28;20046;-73
2023/03/07 04:37:52;;;;;;;4.68;3.28;;;;;;;2.59;99.45;98851.28;6247189;28;20124;-74
2023/03/07 04:40:55;;;;;;;8.73;3.65;;;;;;;2.59;99.33;98857.28;6246261;28;20510;-70
2023/03/07 04:43:56;;;;;;;6.30;3.63;;;;;;;2.66;98.84;98862.97;6228794;28;20374;-70
2023/03/07 04:46:57;;;;;;;5.38;2.75;;;;;;;2.72;98.62;98867.81;6245770;28;20050;-70
2023/03/07 04:49:57;;;;;;;12.10;3.22;;;;;;;2.70;97.90;98874.78;6246660;28;20048;-70
2023/03/07 04:52:58;;;;;;;8.77;4.18;;;;;;;2.68;97.86;98873.16;6246083;28;20154;-70
2023/03/07 04:56:02;;;;;;;8.35;5.10;;;;;;;2.63;97.65;98874.22;6227916;28;20125;-69
2023/03/07 04:59:02;;;;;;;8.05;4.13;;;;;;;2.58;98.49;98873.63;6228436;28;20440;-70
2023/03/07 05:02:10;;;;;;;25.98;4.75;;;;;;;2.59;99.01;98879.59;6227647;28;20045;-70
2023/03/07 05:05:11;;;;;;;9.15;4.03;;;;;;;2.60;99.75;98883.84;6227752;28;20045;-70
2023/03/07 05:08:11;;;;;;;5.43;3.38;;;;;;;2.61;98.80;98882.94;6228807;28;20053;-74
2023/03/07 05:11:12;;;;;;;8.48;3.70;;;;;;;2.61;98.26;98885.50;6227976;28;20034;-70
2023/03/07 05:14:13;;;;;;;8.13;4.20;;;;;;;2.66;98.72;98883.56;6246131;28;20113;-73
2023/03/07 05:17:20;;;;;;;11.07;3.58;;;;;;;2.68;98.26;98891.19;6245333;28;20103;-73
2023/03/07 05:20:22;;;;;;;10.82;4.13;;;;;;;2.74;98.20;98885.75;6245810;28;20048;-70
2023/03/07 05:23:23;;;;;;;4.25;2.80;;;;;;;2.78;98.13;98890.72;6228025;28;20049;-70
2023/03/07 05:26:24;;;;;;;3.38;2.50;;;;;;;2.80;97.57;98886.31;6245164;28;20416;-74
2023/03/07 05:29:25;;;;;;;8.60;4.47;;;;;;;2.77;97.08;98899.34;6246077;28;20068;-74
2023/03/07 05:32:25;;;;;;;5.45;2.97;;;;;;;2.74;97.06;98878.03;6246066;28;20042;-74
2023/03/07 05:35:26;;;;;;;10.55;4.68;;;;;;;2.72;97.79;98883.28;6246308;28;20393;-74
2023/03/07 05:38:29;;;;;;;6.57;3.95;;;;;;;2.69;98.71;98885.97;6228201;28;20148;-74
2023/03/07 05:41:30;;;;;;;7.88;4.40;;;;;;;2.73;98.33;98894.41;6221467;28;20490;-74
2023/03/07 05:44:31;;;;;;;6.72;3.80;;;;;;;2.79;96.97;98899.28;6207042;28;20050;-71
2023/03/07 05:47:32;;;;;;;11.50;3.90;;;;;;;2.85;96.43;98895.56;6226598;28;20037;-74
2023/03/07 05:50:33;;;;;;;12.90;4.57;;;;;;;2.92;97.42;98900.34;6226812;28;20048;-74
2023/03/07 05:53:34;;;;;;;10.00;4.72;;;;;;;3.03;97.04;98897.28;6247257;28;20048;-74
2023/03/07 05:56:37;;;;;;;11.95;4.28;;;;;;;3.11;96.64;98905.47;6229168;28;20090;-74
2023/03/07 05:59:40;;;;;;;11.02;4.80;;;;;;;3.21;95.74;98891.22;6245145;28;20049;-74
2023/03/07 06:02:41;;;;;;;11.02;4.63;;;;;;;3.26;95.37;98908.19;6227561;28;20071;-74
2023/03/07 06:05:42;;;;;;;9.75;4.15;;;;;;;3.31;95.03;98913.94;6227609;28;20077;-74
2023/03/07 06:08:43;;;;;;;10.18;4.20;;;;;;;3.32;94.83;98913.06;6227465;28;20537;-74
2023/03/07 06:11:44;;;;;;;9.88;4.45;;;;;;;3.37;94.42;98911.06;6234978;28;20054;-74
2023/03/07 06:14:47;;;;;;;10.95;4.88;;;;;;;3.41;94.49;98910.00;6202505;28;20042;-74
2023/03/07 06:17:47;;;;;;;4.90;3.38;;;;;;;3.50;94.11;98911.28;6226971;28;20038;-71
2023/03/07 06:20:59;;;;;;;4.00;3.13;;;;;;;3.51;94.14;98929.28;6208942;28;20112;-71
2023/03/07 06:23:59;;;;;;;6.90;3.28;;;;;;;3.56;94.38;98927.31;6202480;28;20095;-74
2023/03/07 06:27:00;;;;;;;6.55;3.88;;;;;;;3.54;93.85;98929.13;6202213;28;20125;-74
2023/03/07 06:30:02;;;;;;;4.03;2.85;;;;;;;3.63;94.76;98935.56;6219959;28;20486;-74
2023/03/07 06:33:04;;;;;;;11.23;5.05;;;;;;;3.70;94.45;98948.97;6219193;28;20052;-74
2023/03/07 06:36:09;;;;;;;7.38;4.50;;;;;;;3.72;93.92;98952.31;6232632;28;20034;-70
2023/03/07 06:39:11;;;;;;;5.82;4.13;;;;;;;3.70;93.94;98949.81;6222390;28;20065;-74
2023/03/07 06:42:11;;;;;;;3.63;2.58;;;;;;;3.80;93.58;98953.59;6223462;28;20046;-73
2023/03/07 06:45:12;;;;;;;7.82;3.58;;;;;;;3.91;92.86;98960.81;6231654;28;20060;-73
2023/03/07 06:48:13;;;;;;;8.75;3.75;;;;;;;4.01;91.86;98961.97;6226998;28;20045;-73
2023/03/07 06:51:14;;;;;;;6.60;3.55;;;;;;;4.03;91.57;98957.56;6226780;28;20128;-73
2023/03/07 06:54:14;;;;;;;8.52;4.07;;;;;;;4.04;91.83;98968.75;6243891;28;20120;-73
2023/03/07 06:57:15;;;;;;;7.63;4.18;;;;;;;4.21;91.22;98960.97;6225972;28;20038;-70
2023/03/07 07:00:19;;;;;;;7.88;4.53;;;;;;;4.24;90.18;98962.53;6243250;28;20129;-74
2023/03/07 07:03:20;;;;;;;10.20;3.95;;;;;;;4.25;90.15;98951.31;6243985;28;20049;-74
2023/03/07 07:06:21;;;;;;;10.77;4.75;;;;;;;4.26;90.45;98952.97;6226213;28;20045;-74
2023/03/07 07:09:22;;;;;;;6.63;3.22;;;;;;;4.19;90.41;98955.03;6225996;28;20048;-74
2023/03/07 07:12:23;;;;;;;5.93;3.55;;;;;;;4.53;88.41;98952.41;6243625;28;20053;-74
2023/03/07 07:15:26;;;;;;;8.18;3.80;;;;;;;4.66;87.55;98950.03;6244215;28;20064;-70
2023/03/07 07:18:27;;;;;;;5.22;3.63;;;;;;;4.79;86.93;98948.44;6225177;28;20052;-71
2023/03/07 07:21:27;;;;;;;7.25;4.55;;;;;;;4.83;84.74;98950.75;6225362;28;20046;-74
2023/03/07 07:24:29;;;;;;;17.42;4.07;;;;;;;4.77;85.29;98958.84;6243579;28;20072;-74
2023/03/07 07:27:29;;;;;;;9.45;4.00;;;;;;;4.99;84.96;98961.09;6225783;28;20485;-74
2023/03/07 07:30:30;;;;;;;9.13;4.22;;;;;;;5.02;84.03;98967.81;6225841;28;20050;-74
2023/03/07 07:33:31;;;;;;;8.50;3.50;;;;;;;5.07;83.86;98960.66;6209856;28;20581;-74
2023/03/07 07:36:33;;;;;;;4.00;2.92;;;;;;;5.20;83.60;98958.22;6225881;28;20046;-74
2023/03/07 07:39:34;;;;;;;5.45;3.55;;;;;;;5.12;83.62;98958.63;6228919;28;20116;-74
2023/03/07 07:42:35;;;;;;;7.25;4.22;;;;;;;5.35;82.91;98961.69;6247675;28;20120;-71
2023/03/07 07:45:36;;;;;;;10.60;3.70;;;;;;;5.48;81.98;98969.56;6246903;28;20451;-71
2023/03/07 07:48:37;;;;;;;5.13;3.28;;;;;;;5.54;79.94;98970.06;6246748;28;20064;-70
2023/03/07 07:51:39;;;;;;;8.95;3.00;;;;;;;5.50;80.04;98971.19;6246564;28;20049;-70
2023/03/07 07:54:40;;;;;;;4.97;3.20;;;;;;;5.52;79.82;98976.25;6246552;28;20042;-70
2023/03/07 07:57:41;;;;;;;8.63;4.13;;;;;;;5.69;78.15;98981.28;6228962;28;20485;-70
2023/03/07 08:00:42;;;;;;;4.30;3.20;;;;;;;5.84;78.54;98974.38;6246970;28;20045;-70
2023/03/07 08:03:43;;;;;;;5.35;3.38;;;;;;;5.98;78.11;98979.63;6246906;28;20068;-70
2023/03/07 08:06:44;;;;;;;4.35;3.38;;;;;;;5.94;76.26;98982.44;6246404;28;20052;-70
2023/03/07 08:09:48;;;;;;;14.20;5.20;;;;;;;6.20;76.03;98979.19;6229323;28;20417;-74
2023/03/07 08:12:52;;;;;;;9.02;4.13;;;;;;;6.40;75.40;98987.50;6247216;28;20041;-74
2023/03/07 08:15:53;;;;;;;10.25;6.07;;;;;;;6.44;74.04;98983.78;6229337;28;20049;-74
2023/03/07 08:18:55;;;;;;;13.07;3.08;;;;;;;6.33;75.33;98986.22;6229487;28;20441;-75
2023/03/07 08:21:57;;;;;;;6.18;3.80;;;;;;;6.33;75.70;98986.22;6228633;28;20451;-71
2023/03/07 08:25:00;;;;;;;9.40;4.32;;;;;;;6.49;74.50;98981.75;6228549;28;20048;-71
2023/03/07 08:28:03;;;;;;;7.65;3.67;;;;;;;6.55;73.82;98978.78;6228434;28;20038;-71
2023/03/07 08:31:12;;;;;;;5.50;3.63;;;;;;;6.69;74.36;98983.09;6246825;28;20042;-74
2023/03/07 08:34:13;;;;;;;9.40;4.18;;;;;;;6.60;73.09;98983.69;6246808;28;20508;-74
2023/03/07 08:37:16;;;;;;;8.88;3.75;;;;;;;6.78;72.34;98973.94;6246633;28;20057;-74
2023/03/07 08:40:17;;;;;;;7.10;4.20;;;;;;;6.94;73.58;98982.44;6246699;28;20061;-74
2023/03/07 08:43:20;;;;;;;11.55;4.72;;;;;;;7.09;72.39;98979.78;6246631;28;20056;-74
2023/03/07 08:46:21;;;;;;;8.20;4.05;;;;;;;7.31;71.11;98977.47;6246843;28;20044;-74
2023/03/07 08:49:22;;;;;;;10.90;4.63;;;;;;;7.45;68.93;98977.41;6245999;28;20065;-70
2023/03/07 08:52:23;;;;;;;10.50;5.07;;;;;;;7.51;70.08;98968.38;6227886;28;20041;-71
2023/03/07 08:55:25;;;;;;;7.60;4.22;;;;;;;7.59;67.38;98963.50;6245511;28;20489;-70
2023/03/07 08:58:28;;;;;;;8.68;4.97;;;;;;;7.70;67.73;98965.44;6246686;28;20045;-73
2023/03/07 09:01:29;;;;;;;10.15;5.25;;;;;;;7.86;67.65;98958.28;6246810;28;20049;-73
2023/03/07 09:04:30;;;;;;;15.63;5.63;;;;;;;7.88;67.37;98960.75;6228463;28;20135;-73
2023/03/07 09:07:31;;;;;;;10.18;4.75;;;;;;;7.73;69.12;98966.97;6246554;28;20041;-74
2023/03/07 09:10:33;;;;;;;9.82;4.80;;;;;;;7.85;67.47;98969.56;6246270;28;20094;-73
2023/03/07 09:13:33;;;;;;;11.60;5.70;;;;;;;8.18;66.23;98975.22;6246708;28;20443;-74
2023/03/07 09:16:34;;;;;;;9.13;4.88;;;;;;;8.43;64.56;98982.19;6246261;28;20049;-73
2023/03/07 09:19:35;;;;;;;12.68;5.75;;;;;;;8.52;64.21;98973.72;6228757;28;20037;-73
2023/03/07 09:22:36;;;;;;;9.40;5.18;;;;;;;8.67;63.90;98979.66;6228536;28;20073;-74
2023/03/07 09:25:38;;;;;;;10.07;5.38;;;;;;;9.12;62.95;98987.72;6228531;28;20068;-74
2023/03/07 09:28:40;;;;;;;12.20;5.25;;;;;;;9.31;62.78;98970.75;6244980;28;20042;-71
2023/03/07 09:31:43;;;;;;;10.77;5.25;;;;;;;9.15;61.80;98987.50;6227169;28;20033;-70
2023/03/07 09:34:44;;;;;;;17.48;5.28;;;;;;;8.94;63.02;98984.66;6227189;28;20049;-71
2023/03/07 09:37:45;;;;;;;9.77;4.30;;;;;;;8.87;62.48;98988.63;6245778;28;20485;-74
2023/03/07 09:40:47;;;;;;;12.60;5.82;;;;;;;9.11;62.11;98990.44;6245525;28;20065;-74
2023/03/07 09:44:14;;;;;;;12.25;4.15;;;;;;;9.17;61.90;98993.41;6245645;28;20065;-74
2023/03/07 09:47:54;;;;;;;8.82;5.05;;;;;;;9.21;60.91;98994.84;6228110;28;20049;-74
2023/03/07 09:51:01;;;;;;;11.10;5.43;;;;;;;9.18;61.46;98995.09;6234042;28;20536;-73
2023/03/07 09:54:10;;;;;;;9.77;4.70;;;;;;;9.26;59.67;98987.53;6245594;28;20072;-73
2023/03/07 09:57:18;;;;;;;9.57;4.30;;;;;;;9.16;60.06;98980.50;6228154;28;20077;-71
2023/03/07 10:00:25;;;;;;;12.27;5.15;;;;;;;9.00;60.69;98983.41;6243174;28;20068;-70
2023/03/07 10:03:47;;;;;;;7.88;4.50;;;;;;;8.57;61.36;98981.22;6227709;28;20044;-73
2023/03/07 10:06:56;;;;;;;10.57;5.88;;;;;;;8.94;61.36;98971.66;6244479;28;20405;-70
2023/03/07 10:10:01;;;;;;;11.80;5.22;;;;;;;9.17;58.73;98979.56;6226433;28;20515;-70
2023/03/07 10:13:16;;;;;;;9.80;4.25;;;;;;;9.22;57.96;98985.25;6244973;28;20042;-70
2023/03/07 10:16:22;;;;;;;6.32;4.10;;;;;;;9.56;58.00;98983.63;6227559;28;20049;-74
2023/03/07 10:19:55;;;;;;;11.00;5.13;;;;;;;9.85;57.52;98981.47;6226454;28;20052;-70
2023/03/07 10:23:18;;;;;;;10.10;5.50;;;;;;;10.01;56.18;98983.75;6243710;28;20064;-70
2023/03/07 10:26:21;;;;;;;11.00;6.00;;;;;;;9.77;58.18;98986.41;6243888;28;20045;-70
2023/03/07 10:29:26;;;;;;;10.93;5.35;;;;;;;9.56;59.13;98983.63;6244380;28;20067;-74
2023/03/07 10:32:51;;;;;;;13.63;5.93;;;;;;;9.92;59.13;98975.78;6226994;28;20096;-74
2023/03/07 10:36:07;;;;;;;12.70;6.05;;;;;;;9.99;58.36;98985.66;6226434;28;20610;-71
2023/03/07 10:39:36;;;;;;;10.13;5.32;;;;;;;9.24;59.44;98973.78;6226121;28;20053;-75
2023/03/07 10:42:39;;;;;;;17.65;5.55;;;;;;;9.48;59.04;98968.56;6244470;28;20094;-74
2023/03/07 10:45:40;;;;;;;12.27;5.70;;;;;;;9.21;60.17;98965.41;6244369;28;20545;-74
2023/03/07 10:48:53;;;;;;;12.98;5.68;;;;;;;9.17;60.13;98964.78;6226884;28;20085;-74
2023/03/07 10:52:11;;;;;;;12.90;4.88;;;;;;;9.22;59.73;98964.44;6244076;28;20037;-74
2023/03/07 10:55:43;;;;;;;10.38;4.50;;;;;;;9.44;59.69;98955.91;6244231;28;20045;-71
2023/03/07 10:59:04;;;;;;;7.77;4.73;;;;;;;9.83;58.60;98940.84;6243621;28;20091;-74
2023/03/07 11:02:24;;;;;;;10.75;5.50;;;;;;;9.79;58.09;98950.66;6226554;28;20063;-74
2023/03/07 11:05:33;;;;;;;11.82;5.43;;;;;;;9.32;58.25;98944.59;6243704;28;20042;-71
2023/03/07 11:08:35;;;;;;;8.85;5.35;;;;;;;9.77;57.97;98936.94;6225590;28;20073;-70
2023/03/07 11:11:37;;;;;;;10.02;4.95;;;;;;;10.03;57.44;98939.34;6242664;28;20120;-70
2023/03/07 11:15:10;;;;;;;14.38;5.13;;;;;;;9.88;54.51;98938.72;6226385;28;20503;-74
2023/03/07 11:18:36;;;;;;;7.55;4.43;;;;;;;9.71;54.90;98918.34;6262538;28;20136;-74
2023/03/07 11:21:37;;;;;;;18.10;8.70;;;;;;;9.65;55.14;98909.19;6226212;28;20128;-74
2023/03/07 11:24:39;;;;;;;12.20;6.10;;;;;;;9.61;54.84;98905.16;6243471;28;20524;-73
2023/03/07 11:27:51;;;;;;;14.85;6.70;;;;;;;9.91;55.05;98909.84;6243969;28;20045;-73
2023/03/07 11:31:01;;;;;;;17.63;7.38;;;;;;;9.74;53.48;98910.28;6226468;28;20065;-74
2023/03/07 11:34:32;;;;;;;8.43;4.28;;;;;;;9.61;53.16;98908.59;6226369;28;20113;-74
2023/03/07 11:37:42;;;;;;;13.70;5.93;;;;;;;9.46;52.26;98914.97;6226282;28;20046;-73
2023/03/07 11:41:13;;;;;;;13.75;7.05;;;;;;;9.30;51.69;98904.84;6225976;28;20085;-70
2023/03/07 11:44:46;;;;;;;8.40;5.18;;;;;;;9.30;52.44;98910.06;6244091;28;20057;-70
2023/03/07 11:48:05;;;;;;;7.65;3.78;;;;;;;9.14;51.73;98901.72;6250313;28;20134;-70
2023/03/07 11:51:30;;;;;;;13.50;4.45;;;;;;;8.93;52.48;98904.13;6224708;28;20034;-70
2023/03/07 11:55:00;;;;;;;10.35;4.22;;;;;;;8.93;53.04;98901.50;6224698;28;20053;-70
2023/03/07 11:58:38;;;;;;;10.63;5.10;;;;;;;8.88;54.71;98910.47;6224632;28;20049;-70
2023/03/07 12:01:55;;;;;;;8.27;4.57;;;;;;;8.72;53.98;98917.72;6242248;28;20045;-71
2023/03/07 12:05:13;;;;;;;8.40;4.75;;;;;;;8.77;55.07;98917.38;6224480;28;20123;-71
2023/03/07 12:08:32;;;;;;;11.27;4.70;;;;;;;8.64;55.28;98918.25;6242180;28;20042;-70
2023/03/07 12:11:51;;;;;;;11.10;4.47;;;;;;;8.60;55.79;98913.38;6224345;28;20049;-70
2023/03/07 12:15:17;;;;;;;10.65;6.07;;;;;;;8.87;57.16;98913.19;6242052;28;20450;-70
2023/03/07 12:18:49;;;;;;;9.18;4.97;;;;;;;8.62;57.10;98922.72;6224411;28;20048;-70
2023/03/07 12:22:24;;;;;;;6.80;4.25;;;;;;;8.58;57.62;98916.09;6242849;28;20124;-74
2023/03/07 12:25:40;;;;;;;8.25;4.93;;;;;;;8.58;57.17;98910.06;6246210;28;20052;-74
2023/03/07 12:29:01;;;;;;;15.43;6.78;;;;;;;8.41;56.78;98901.69;6229638;28;20045;-74
2023/03/07 12:32:15;;;;;;;12.95;5.63;;;;;;;8.70;56.45;98908.38;6229589;28;20044;-74
2023/03/07 12:36:00;;;;;;;14.35;5.80;;;;;;;8.62;56.23;98903.72;6229530;28;20057;-74
2023/03/07 12:39:19;;;;;;;6.13;4.03;;;;;;;8.60;56.33;98903.00;6240078;28;20521;-70
2023/03/07 12:42:20;;;;;;;9.07;5.47;;;;;;;8.78;55.89;98899.06;6246851;28;20045;-70
2023/03/07 12:45:23;;;;;;;8.13;4.07;;;;;;;8.76;53.28;98892.34;6228090;28;20126;-71
2023/03/07 12:48:42;;;;;;;8.57;3.53;;;;;;;8.76;50.77;98889.72;6228291;28;20565;-73
2023/03/07 12:51:52;;;;;;;5.85;3.55;;;;;;;8.73;52.23;98888.19;6229393;28;20037;-73
2023/03/07 12:55:07;;;;;;;4.47;2.75;;;;;;;8.64;50.85;98887.06;6228515;28;20068;-70
2023/03/07 12:58:20;;;;;;;4.47;2.47;;;;;;;8.70;50.76;98882.38;6228046;28;20491;-70
2023/03/07 13:01:38;;;;;;;9.60;3.53;;;;;;;8.71;50.69;98899.63;6245357;28;20073;-70
2023/03/07 13:04:43;;;;;;;26.10;3.28;;;;;;;8.62;51.72;98901.94;6227835;28;20042;-70
2023/03/07 13:07:45;;;;;;;4.82;2.50;;;;;;;8.54;50.39;98898.22;6245403;28;20090;-70
2023/03/07 13:10:46;;;;;;;5.18;2.90;;;;;;;8.59;50.24;98898.75;6245372;28;20491;-71
2023/03/07 13:14:09;;;;;;;6.18;1.90;;;;;;;8.64;49.79;98902.66;6245122;28;20037;-71
2023/03/07 13:17:32;;;;;;;4.85;2.88;;;;;;;8.78;50.18;98909.47;6245437;28;20065;-73
2023/03/07 13:20:38;;;;;;;7.35;3.20;;;;;;;8.53;50.89;98899.19;6246169;28;20094;-73
2023/03/07 13:23:41;;;;;;;5.70;3.58;;;;;;;8.43;52.55;98899.81;6246020;28;20122;-73
2023/03/07 13:26:43;;;;;;;6.90;3.45;;;;;;;8.47;52.73;98896.06;6246138;28;20045;-71
2023/03/07 13:30:09;;;;;;;6.35;3.05;;;;;;;8.72;53.20;98904.72;6227480;28;20117;-74
2023/03/07 13:33:26;;;;;;;7.90;4.15;;;;;;;8.66;51.52;98897.34;6228274;28;20038;-73
2023/03/07 13:36:37;;;;;;;12.10;4.78;;;;;;;8.75;51.89;98894.13;6245515;28;20045;-70
2023/03/07 13:39:38;;;;;;;18.65;4.78;;;;;;;8.83;51.72;98894.38;6244647;28;20049;-70
2023/03/07 13:42:47;;;;;;;15.35;7.18;;;;;;;8.76;50.49;98890.56;6245092;28;20115;-70
2023/03/07 13:46:00;;;;;;;13.13;5.45;;;;;;;8.83;51.30;98881.38;6227003;28;20048;-70
2023/03/07 13:49:01;;;;;;;10.63;5.15;;;;;;;9.06;51.34;98884.09;6226848;28;20072;-70
2023/03/07 13:52:20;;;;;;;7.90;3.80;;;;;;;8.82;50.48;98886.69;6244414;28;20041;-70
2023/03/07 13:55:25;;;;;;;13.98;5.57;;;;;;;8.82;51.41;98879.72;6226733;28;20045;-70
2023/03/07 13:58:34;;;;;;;5.82;3.42;;;;;;;8.86;51.62;98875.94;6226861;28;20042;-70
2023/03/07 14:01:34;;;;;;;7.85;4.65;;;;;;;8.74;51.73;98874.22;6244221;28;20053;-70
2023/03/07 14:04:45;;;;;;;7.55;3.50;;;;;;;8.69;51.29;98865.94;6226914;28;20124;-73
2023/03/07 14:07:50;;;;;;;7.45;4.70;;;;;;;8.80;51.59;98870.38;6244428;28;20082;-70
2023/03/07 14:10:52;;;;;;;19.48;4.70;;;;;;;8.67;51.33;98867.81;6244605;28;20048;-70
2023/03/07 14:13:56;;;;;;;4.82;2.80;;;;;;;8.55;49.95;98874.72;6226920;28;20076;-73
2023/03/07 14:17:05;;;;;;;6.07;3.13;;;;;;;8.55;51.49;98876.50;6245132;28;20045;-73
2023/03/07 14:20:17;;;;;;;12.10;4.82;;;;;;;8.48;52.71;98868.28;6227641;28;20056;-74
2023/03/07 14:23:24;;;;;;;;;;;;;;;8.32;51.75;98870.28;6245548;28;20065;-74
2023/03/07 14:26:32;;;;;;;14.02;4.35;;;;;;;8.34;51.21;98868.41;6245032;28;19950;-74
2023/03/07 14:29:33;;;;;;;9.35;3.58;;;;;;;8.27;51.88;98871.44;6244985;28;20038;-74
2023/03/07 14:32:34;;;;;;;7.55;3.38;;;;;;;8.37;52.12;98865.59;6227153;28;20067;-74
2023/03/07 14:35:41;;;;;;;11.32;4.15;;;;;;;8.31;53.40;98860.84;6226997;28;20090;-74
2023/03/07 14:38:46;;;;;;;7.28;4.15;;;;;;;8.44;53.90;98864.25;6244397;28;20068;-71
2023/03/07 14:41:53;;;;;;;8.23;4.13;;;;;;;8.39;53.32;98863.72;6225852;28;20041;-71